Date,TemperatureHighF,TemperatureAvgF,TemperatureLowF,DewpointHighF,DewpointAvgF,DewpointLowF,HumidityHigh,HumidityAvg,HumidityLow,PressureMaxIn,PressureMinIn,WindSpeedMaxMPH,WindSpeedAvgMPH,GustSpeedMaxMPH,PrecipitationSumIn
2013-1-1,31.6,24.3,10.7,22.3,17.0,6.6,87,74,59,30.49,30.38,10,4,0,0.00
2013-1-2,28.2,27.8,27.5,24.7,24.3,23.9,87,86,86,30.37,30.36,14,10,14,0.00
2013-1-4,40.6,26.0,11.7,22.7,14.6,5.6,77,63,44,30.47,30.28,14,6,16,0.00
2013-1-5,41.4,26.4,14.3,26.2,16.3,8.2,78,66,49,30.40,30.21,25,12,31,0.00
2013-1-8,46.4,39.8,34.3,29.7,27.2,24.6,69,61,52,30.39,30.05,18,9,18,0.00
2013-1-9,52.6,38.7,27.9,30.9,26.5,19.5,77,63,40,30.56,30.37,23,10,28,0.00
2013-1-10,41.6,37.8,33.8,31.8,28.0,24.9,90,68,55,30.38,29.73,23,12,29,0.00
2013-1-11,36.4,30.0,16.2,33.5,26.6,9.0,91,87,73,30.07,29.49,34,12,36,0.00
2013-1-12,16.1,13.0,9.3,9.0,4.9,1.3,73,70,65,30.20,30.06,22,17,28,0.00
2013-1-14,23.7,23.0,20.1,12.2,8.8,7.7,71,54,51,30.59,30.57,9,5,9,0.00
2013-1-15,13.3,10.3,8.2,8.3,6.1,3.4,84,82,80,30.51,30.49,8,6,9,0.00
2013-1-16,50.3,41.4,32.0,27.9,25.3,21.7,68,54,39,30.30,30.23,25,18,29,0.00
2013-1-17,51.7,40.7,25.6,26.0,23.5,17.9,73,52,35,30.64,30.36,17,9,25,0.00
2013-1-18,58.1,45.4,26.9,24.9,22.4,19.2,74,42,26,30.37,30.06,18,10,22,0.00
2013-1-19,55.4,41.8,31.5,25.4,21.9,19.1,68,47,28,30.41,30.05,24,13,28,0.00
2013-1-20,35.9,22.8,18.9,27.0,9.8,-99.9,85,70,63,30.63,30.36,28,-57,29,0.00
2013-1-21,24.9,19.7,15.1,14.2,12.2,9.3,83,73,60,30.60,30.44,11,6,15,0.00
2013-1-22,33.8,20.5,9.6,17.7,12.5,5.5,83,72,51,30.50,30.38,12,6,13,0.00
2013-1-23,23.3,21.6,19.8,15.4,14.2,12.8,76,73,70,30.42,30.37,11,4,12,0.00
2013-1-25,47.5,43.6,41.4,25.9,24.8,23.7,53,47,41,30.32,30.28,13,8,17,0.00
2013-1-26,55.2,43.2,34.1,36.1,28.5,24.4,80,57,39,30.28,29.97,20,11,24,0.00
2013-1-27,50.6,41.8,37.6,42.7,37.3,34.7,90,84,71,29.97,29.80,12,6,15,0.00
2013-1-28,39.9,32.7,31.7,36.3,29.0,27.4,87,86,84,29.92,29.86,17,12,19,0.01
2013-1-29,31.6,30.2,28.9,27.3,26.0,25.0,85,85,83,29.90,29.85,15,11,20,0.00
2013-2-2,51.9,41.2,33.5,28.5,23.1,-99.9,77,53,32,30.41,30.28,34,0,40,0.00
2013-2-3,52.1,39.7,26.9,26.2,23.7,20.3,77,55,35,30.40,29.97,23,10,30,0.00
2013-2-4,50.9,37.9,28.1,29.0,25.3,20.9,76,62,38,30.12,29.99,12,6,16,0.00
2013-2-7,51.9,41.3,29.8,30.3,22.9,15.1,80,51,27,30.32,30.12,15,9,20,0.00
2013-2-8,47.8,33.6,18.8,29.9,24.7,15.3,88,71,48,30.33,30.05,25,15,33,0.00
2013-2-9,48.9,38.1,27.6,38.2,29.2,21.7,87,71,46,30.07,29.53,25,15,34,0.00
2013-2-10,38.0,30.5,25.9,34.7,24.4,17.5,89,78,66,30.17,29.36,38,25,48,0.00
2013-2-11,33.2,25.6,17.0,18.0,14.8,9.5,76,64,49,30.39,30.17,20,10,23,0.00
2013-2-12,40.1,29.2,20.6,21.7,15.2,12.0,73,57,39,30.31,30.18,20,9,20,0.02
2013-2-13,48.8,37.9,26.1,30.5,23.2,16.9,74,56,42,30.16,29.97,22,15,25,0.01
2013-2-14,37.9,31.4,23.0,29.6,22.9,15.4,82,71,51,30.52,30.09,22,10,25,0.02
2013-2-15,31.7,23.9,16.6,18.7,12.5,8.0,84,63,41,30.58,30.51,23,10,27,0.00
2013-2-16,20.5,19.4,18.3,10.0,9.1,8.2,66,64,62,30.55,30.51,11,7,12,0.00
2013-2-19,33.9,23.1,16.3,14.6,11.5,8.2,72,62,42,30.51,30.39,13,7,17,0.00
2013-2-20,21.9,19.2,11.5,17.7,7.5,-99.9,84,76,62,30.38,30.24,21,-56,25,0.00
2013-2-21,16.3,15.6,15.2,12.6,11.6,11.2,85,84,84,30.25,30.19,17,12,21,0.00
2013-2-22,22.5,17.6,7.9,16.0,12.3,3.5,83,79,75,30.33,30.27,13,9,13,0.00
2013-2-23,28.3,27.5,26.8,24.1,23.4,22.6,85,84,83,30.00,29.99,2,2,5,0.00
2013-2-24,27.2,27.1,27.1,23.2,23.2,23.2,85,85,85,30.00,30.00,3,2,4,0.00
2013-3-1,37.1,31.3,27.7,26.4,24.2,22.1,81,75,65,30.54,30.50,7,4,8,0.00
2013-3-2,56.5,37.7,20.8,38.9,28.6,17.3,88,71,51,30.52,30.16,8,3,9,0.00
2013-3-3,55.8,44.1,35.2,38.2,33.8,28.8,80,68,50,30.16,29.69,13,6,19,0.00
2013-3-4,45.2,37.0,25.2,34.2,19.7,9.4,79,51,33,30.32,29.69,33,20,38,0.00
2013-3-5,36.9,28.0,20.9,16.0,12.9,10.5,69,54,38,30.58,30.32,33,16,39,0.00
2013-3-6,23.0,21.8,20.2,14.0,13.4,12.9,74,70,67,30.56,30.53,12,7,13,0.00
2013-3-9,54.2,37.0,29.7,50.3,32.7,24.7,91,84,76,30.03,29.63,32,19,42,0.00
2013-3-10,30.1,23.2,17.2,27.0,15.9,11.4,88,74,64,30.32,30.02,30,22,38,0.00
2013-3-11,51.7,32.9,15.1,29.8,20.3,9.7,80,62,41,30.28,30.09,26,11,29,0.00
2013-3-12,40.7,34.9,28.9,26.4,15.7,9.4,74,47,28,30.50,30.25,30,16,34,0.00
2013-3-13,61.5,41.4,24.1,33.0,19.4,-99.9,65,44,33,30.50,30.25,17,-15,24,0.00
2013-3-14,71.6,56.3,40.8,37.1,32.1,-99.9,71,44,25,30.29,30.08,16,-4,18,0.00
2013-3-15,75.0,56.9,44.4,37.3,33.3,31.2,64,43,21,30.08,29.75,19,10,24,0.00
2013-3-19,31.1,30.7,30.1,10.5,10.1,9.7,42,42,41,30.51,30.50,13,11,15,0.00
2013-3-20,44.6,33.6,19.4,19.1,14.9,8.6,64,47,33,30.58,30.13,18,12,25,0.00
2013-3-21,43.4,35.2,28.5,25.9,19.6,14.9,86,54,40,30.13,29.86,25,17,30,0.00
2013-3-22,41.0,33.1,28.9,29.1,27.3,25.3,88,80,61,30.15,29.99,15,8,18,0.00
2013-3-23,30.6,28.1,27.4,27.2,22.3,-99.9,88,84,81,30.24,30.13,18,-12,23,0.00
2013-3-26,45.4,35.5,15.2,24.0,18.3,8.9,77,51,31,30.54,30.28,20,11,29,0.00
2013-3-27,57.1,41.6,27.5,29.0,25.7,21.1,78,56,33,30.32,30.23,11,5,15,0.00
2013-3-28,63.2,47.2,32.3,34.5,29.3,23.8,74,52,32,30.32,30.15,18,9,24,0.00
2013-3-29,67.3,53.2,40.3,46.0,36.3,-99.9,78,54,40,30.25,30.01,20,10,27,0.09
2013-3-30,61.6,50.4,38.6,44.3,39.1,-99.9,90,68,41,30.14,30.00,22,10,27,0.00
2013-4-2,54.2,43.2,30.0,28.8,25.5,21.3,71,51,37,30.40,30.28,15,8,20,0.00
2013-4-3,53.2,43.3,35.7,29.6,26.5,22.5,71,53,36,30.38,30.25,27,12,28,0.00
2013-4-4,63.3,46.9,31.4,37.1,31.7,25.9,81,58,36,30.31,30.18,15,7,17,0.00
2013-4-5,74.5,42.6,34.9,41.1,10.2,-99.9,80,44,26,30.19,29.66,20,-168,28,0.00
2013-4-6,68.9,51.6,48.2,41.0,16.1,-99.9,67,36,25,29.87,29.66,35,-132,37,0.00
2013-4-7,61.8,54.1,50.0,48.9,38.5,28.8,82,57,37,29.87,29.67,16,6,21,0.05
2013-4-8,71.5,52.7,40.4,54.3,42.7,-99.9,89,74,33,29.79,29.59,32,10,44,1.11
2013-4-13,64.2,50.9,31.7,47.2,39.5,27.5,86,67,47,30.10,29.52,27,14,40,0.00
2013-4-14,55.1,48.3,43.8,47.3,35.5,20.5,87,64,32,29.73,29.38,41,22,44,0.00
2013-4-15,45.0,35.8,29.0,24.4,21.4,15.5,68,56,41,30.25,29.98,16,9,20,0.00
2013-4-16,41.7,35.5,29.4,30.1,27.7,23.4,89,74,55,30.37,30.22,24,11,26,0.06
2013-4-17,39.6,31.7,27.5,29.9,26.8,22.8,88,82,67,30.29,30.07,34,17,41,0.00
2013-4-18,31.2,27.2,24.6,24.0,20.8,17.0,87,77,60,30.25,30.12,31,23,36,0.00
2013-4-19,46.9,37.3,27.1,30.3,24.8,18.8,74,61,47,30.24,30.18,26,13,0,0.00
2013-4-20,52.4,40.8,31.2,34.5,28.4,22.8,74,62,47,30.24,30.13,19,14,0,0.00
2013-4-21,64.7,48.2,34.4,42.7,36.4,29.2,85,66,37,30.18,30.08,17,7,0,0.03
2013-4-22,42.5,34.4,28.0,38.0,29.7,21.4,90,83,74,30.52,30.06,22,17,0,0.26
2013-4-23,38.7,35.0,31.1,18.2,17.5,16.3,57,49,41,30.42,30.38,13,5,29,0.00
2013-4-24,53.8,41.8,27.0,30.2,27.7,17.1,69,59,30,30.42,30.27,29,7,30,0.00
2013-4-25,70.3,51.8,33.5,35.8,30.2,26.7,77,48,24,30.39,29.98,34,15,43,0.00
2013-4-26,72.2,60.5,47.4,43.1,31.2,26.8,63,35,22,30.21,30.01,21,10,28,0.00
2013-4-27,77.7,61.1,43.2,46.5,40.8,33.1,87,53,20,30.21,29.93,18,7,24,0.00
2013-4-28,84.5,65.9,49.7,43.7,39.5,33.4,72,43,17,29.94,29.70,23,10,29,0.00
2013-4-29,80.2,66.4,52.0,49.2,41.9,36.8,60,42,25,29.87,29.48,19,10,26,0.00
2013-4-30,69.7,58.9,45.8,49.4,37.5,26.6,68,47,29,30.11,29.47,26,16,33,0.00
2013-5-1,45.7,34.9,31.9,34.9,30.2,25.2,88,83,65,30.68,29.98,24,16,36,0.33
2013-5-2,50.5,48.5,46.2,28.8,24.7,21.8,48,39,34,30.72,30.63,14,9,31,0.00
2013-5-3,55.3,47.9,33.0,30.1,24.3,18.2,75,41,27,30.49,30.23,17,9,25,0.00
2013-5-4,52.4,48.1,39.5,26.0,23.8,18.8,58,39,30,30.36,30.26,24,15,29,0.00
2013-5-5,61.3,39.0,30.2,26.4,24.0,22.0,72,58,24,30.37,30.24,11,8,16,0.00
2013-5-6,68.1,55.9,40.5,45.0,36.6,26.6,85,52,31,30.25,30.07,12,6,0,0.00
2013-5-7,63.5,57.4,52.8,52.8,47.3,36.5,86,70,46,30.09,29.94,19,12,0,0.02
2013-5-8,72.0,60.8,50.6,52.1,47.6,43.0,88,65,36,30.02,29.93,17,8,0,0.17
2013-5-9,59.8,55.5,51.5,50.1,47.6,43.6,87,75,61,30.17,29.98,18,10,0,0.01
2013-5-10,71.3,58.8,46.7,48.1,44.6,41.6,87,63,35,30.22,30.11,17,6,22,0.00
2013-5-11,64.0,56.0,46.6,44.4,32.2,23.9,63,42,27,30.42,30.20,20,11,26,0.00
2013-5-12,75.8,58.1,40.8,46.5,36.6,27.9,65,46,25,30.33,30.08,16,8,19,0.00
2013-5-13,92.8,74.3,55.3,51.5,47.0,43.2,72,43,20,30.11,29.85,14,6,21,0.00
2013-5-14,95.8,81.7,63.7,51.6,46.7,42.1,49,31,18,29.85,29.64,18,10,22,0.00
2013-5-15,79.3,70.8,61.8,48.4,42.9,39.1,48,37,28,29.89,29.75,25,16,0,0.00
2013-5-16,78.3,64.7,57.7,57.9,52.1,41.4,82,65,40,29.86,29.75,24,9,0,0.21
2013-5-17,83.9,69.8,54.7,60.4,55.0,49.3,83,62,37,29.90,29.75,21,10,0,0.00
2013-5-18,77.9,69.8,60.3,64.8,60.2,48.5,87,73,41,29.82,29.50,28,14,37,0.03
2013-5-19,66.0,59.4,55.9,55.6,51.9,-99.9,86,77,64,29.74,29.58,24,11,29,0.49
2013-5-20,62.0,56.7,54.4,52.6,49.5,44.0,88,78,55,29.73,29.66,25,13,31,0.03
2013-5-22,65.5,55.0,47.0,48.4,44.5,40.5,83,69,52,30.15,29.92,22,14,0,0.00
2013-5-23,66.6,55.7,48.0,49.2,45.7,42.7,84,70,50,30.27,30.15,19,12,0,0.00
2013-5-24,77.1,61.7,54.8,61.4,50.9,-99.9,85,72,56,30.23,29.94,24,18,0,1.10
2013-5-25,87.8,71.8,59.3,63.0,57.4,50.1,84,63,38,30.05,29.76,25,14,0,0.27
2013-5-26,89.1,76.7,65.3,66.0,63.1,60.7,86,65,41,29.80,29.62,22,13,31,0.00
2013-5-27,77.0,66.9,57.9,65.2,59.6,53.1,91,78,62,29.77,29.58,31,12,38,0.35
2013-5-28,76.1,64.1,55.1,60.6,55.2,50.6,88,74,51,29.79,29.60,24,9,30,0.00
2013-5-29,66.7,59.1,55.9,60.6,54.1,52.0,90,84,71,29.71,29.48,22,11,28,1.74
2013-5-30,75.9,64.0,54.0,53.5,48.5,40.7,88,61,29,29.70,29.54,22,12,29,0.00
2013-5-31,69.8,61.4,52.1,47.5,43.2,38.5,70,53,34,29.87,29.70,31,18,38,0.00
2013-6-1,55.3,52.5,51.1,45.3,44.0,42.8,80,73,64,30.11,29.84,31,22,37,0.00
2013-6-2,70.7,58.2,42.6,47.9,43.8,37.5,82,61,43,30.25,29.98,15,8,0,0.00
2013-6-3,81.2,66.4,53.2,59.3,51.4,43.8,78,59,46,30.01,29.67,27,19,0,0.02
2013-6-4,70.0,65.6,59.1,58.9,53.0,46.8,88,65,49,30.09,29.75,31,11,20,0.36
2013-6-5,66.5,57.7,50.0,51.2,45.3,42.3,80,64,46,30.20,30.06,22,11,29,0.07
2013-6-6,71.8,59.8,46.0,49.2,46.2,41.2,85,63,42,30.17,30.04,12,6,22,0.00
2013-6-7,79.7,65.9,50.3,53.9,49.6,44.6,82,58,34,30.13,29.82,19,6,27,0.00
2013-6-8,70.2,63.5,59.6,58.3,55.5,53.6,85,76,58,29.84,29.63,24,11,30,0.08
2013-6-9,78.4,67.5,57.3,51.8,49.9,46.5,77,56,34,29.97,29.88,19,13,0,0.00
2013-6-10,93.8,75.7,58.3,67.7,56.1,48.1,70,52,35,29.90,29.69,15,10,0,0.00
2013-6-11,98.4,84.7,73.3,68.2,60.8,53.3,64,45,31,29.75,29.47,25,12,0,0.00
2013-6-12,82.4,73.0,59.8,65.8,59.2,50.4,84,63,42,30.10,29.58,20,14,0,0.00
2013-6-13,80.8,67.0,53.5,58.2,52.5,47.4,83,62,44,30.17,29.94,16,10,0,0.00
2013-6-14,89.0,79.3,68.5,66.5,61.2,50.8,72,55,28,30.00,29.74,27,12,26,0.00
2013-6-15,81.5,74.6,65.8,62.3,60.6,55.8,81,62,48,29.98,29.80,20,10,24,0.00
2013-6-16,84.1,70.7,63.4,64.6,59.5,47.1,83,69,28,30.08,29.86,27,10,42,0.00
2013-6-17,81.1,68.4,53.9,57.9,55.6,50.2,89,66,42,30.13,29.99,13,6,42,0.00
2013-6-18,80.1,71.5,60.2,62.8,58.6,51.3,83,65,48,30.11,29.92,21,9,0,0.29
2013-6-19,83.4,73.5,62.4,62.0,59.5,56.3,81,63,47,29.97,29.77,23,13,0,0.00
2013-6-20,92.1,79.4,68.8,67.8,64.3,60.7,82,62,42,29.81,29.66,20,14,0,0.00
2013-6-21,96.3,84.0,64.3,66.4,60.1,47.8,75,46,23,29.77,29.58,29,15,0,0.00
2013-6-22,91.6,72.9,64.2,71.4,59.7,47.1,77,64,24,29.86,29.59,39,13,54,0.19
2013-6-23,78.2,69.6,60.5,65.6,60.3,54.5,86,73,59,29.90,29.71,26,8,40,0.16
2013-6-24,85.5,74.1,61.8,70.5,64.1,56.1,88,72,54,29.95,29.62,33,11,52,0.44
2013-6-25,90.2,79.8,70.2,67.7,61.8,51.7,81,57,28,29.75,29.63,20,9,22,0.00
2013-6-26,94.4,79.9,63.9,71.6,62.2,55.6,78,57,34,29.92,29.74,11,6,15,0.00
2013-6-27,78.1,77.4,76.8,67.4,66.7,66.3,70,70,69,29.86,29.85,8,6,15,0.00
2013-6-28,85.1,76.4,65.5,62.9,58.0,54.5,85,56,36,30.12,30.01,14,9,0,0.00
2013-6-29,79.6,72.2,60.7,57.6,53.9,49.9,78,54,36,30.08,30.01,16,10,0,0.00
2013-6-30,77.8,68.6,56.5,56.4,52.7,50.2,82,59,38,30.19,30.08,13,8,0,0.00
2013-7-1,76.0,66.9,54.6,52.8,49.6,43.8,81,56,32,30.30,30.19,10,4,0,0.00
2013-7-2,79.2,67.7,53.0,53.8,48.6,45.5,80,53,32,30.26,30.11,11,5,15,0.00
2013-7-3,83.8,69.2,60.4,54.2,50.1,46.3,66,52,31,30.13,29.88,17,7,24,0.00
2013-7-4,89.3,74.4,64.7,55.3,51.1,48.4,59,45,26,29.94,29.77,18,9,24,0.00
2013-7-5,89.5,79.2,68.3,62.1,56.2,49.7,57,46,36,29.82,29.68,23,12,32,0.00
2013-7-6,94.4,81.1,71.0,69.3,61.8,57.3,64,53,36,29.73,29.66,21,11,30,0.00
2013-7-7,88.9,79.0,65.9,70.4,66.1,60.6,84,66,48,29.93,29.72,24,8,28,0.05
2013-7-8,89.7,78.4,68.5,70.3,66.7,62.8,88,69,46,29.97,29.81,28,9,47,0.04
2013-7-9,95.3,79.9,68.9,72.9,65.9,61.5,80,64,40,30.04,29.84,18,6,24,0.00
2013-7-10,80.0,73.8,67.8,66.2,62.5,58.4,78,68,55,30.14,29.99,16,8,27,0.05
2013-7-11,89.0,77.5,67.3,69.2,65.5,61.6,83,68,48,30.07,29.85,18,12,25,0.00
2013-7-12,99.1,83.5,72.6,72.9,65.7,61.2,74,58,31,29.90,29.72,19,12,27,0.00
2013-7-13,86.5,82.3,76.4,63.8,62.6,61.4,61,52,46,29.84,29.78,20,10,33,0.00
2013-7-14,82.6,76.4,72.1,69.4,66.9,63.1,83,73,62,30.10,29.79,21,10,0,0.00
2013-7-15,72.1,72.1,72.0,66.6,66.6,66.6,83,83,83,30.11,30.10,8,7,22,0.00
2013-7-16,81.7,72.6,64.4,61.8,60.5,59.5,86,67,49,30.26,30.15,18,13,0,0.00
2013-7-17,86.8,75.8,63.6,62.9,60.9,58.3,83,62,41,30.30,30.11,19,11,0,0.00
2013-7-18,90.4,80.1,69.0,64.6,62.7,61.2,81,57,38,30.13,29.86,19,13,0,0.00
2013-7-19,87.5,79.9,72.2,65.6,61.2,56.0,69,54,37,29.96,29.89,17,10,24,0.00
2013-7-20,83.0,73.9,59.3,67.3,62.3,-99.9,88,69,53,30.04,29.82,30,10,40,0.58
2013-7-21,89.7,74.9,60.0,68.2,59.5,54.6,87,61,35,30.03,29.76,29,9,33,0.18
2013-7-22,90.0,79.0,65.8,68.3,61.8,-99.9,85,57,41,29.90,29.70,27,8,33,0.32
2013-7-23,87.1,73.4,62.8,65.3,60.5,55.0,81,65,37,30.02,29.82,23,10,30,0.00
2013-7-24,85.1,72.7,60.9,67.0,62.1,57.6,90,71,44,30.13,29.98,10,4,16,0.00
2013-7-25,77.8,71.8,66.9,63.6,58.7,52.9,81,64,45,30.05,29.96,24,11,31,0.05
2013-7-26,74.7,67.5,60.8,62.9,56.0,51.6,90,68,46,30.24,30.08,11,8,0,0.00
2013-7-27,62.9,59.4,55.7,52.9,51.4,49.8,87,75,66,30.20,30.09,16,7,19,0.32
2013-7-28,62.1,58.4,55.8,55.6,53.1,50.5,90,83,71,30.14,30.05,14,7,18,0.00
2013-7-29,69.1,63.4,57.5,62.6,59.5,54.6,91,87,79,30.09,30.01,11,6,18,0.06
2013-7-30,80.8,68.6,60.5,66.5,62.4,57.9,92,82,54,30.23,30.05,24,6,34,0.01
2013-7-31,79.9,72.1,63.7,66.0,62.6,54.5,88,73,59,30.23,30.09,24,8,33,0.06
2013-8-1,88.2,76.7,66.0,69.3,65.2,61.3,86,69,48,30.15,29.75,31,10,38,0.20
2013-8-2,80.2,71.2,62.5,67.1,62.9,58.5,91,76,61,30.01,29.81,20,9,0,0.04
2013-8-3,72.6,67.4,63.1,64.8,61.7,58.9,91,82,68,30.23,30.02,24,11,0,0.04
2013-8-4,76.4,67.5,62.0,68.1,62.4,57.6,90,84,75,30.18,30.00,14,9,0,0.09
2013-8-5,83.6,74.8,69.0,71.9,69.0,65.7,92,83,67,30.02,29.84,12,6,0,0.00
2013-8-6,86.4,76.4,70.0,71.2,67.6,63.5,90,75,55,29.91,29.81,22,8,15,0.00
2013-8-7,79.5,73.8,68.7,65.1,61.1,55.9,75,65,47,30.00,29.90,12,7,16,0.00
2013-8-8,77.7,69.5,64.0,63.7,61.0,57.6,89,75,54,30.08,29.96,9,2,10,0.15
2013-8-9,80.4,68.2,57.6,63.9,59.4,54.7,92,76,50,30.15,30.08,5,1,9,0.00
2013-8-10,83.3,72.3,60.5,61.6,59.4,57.2,90,66,42,30.18,30.04,9,4,0,0.00
2013-8-11,85.5,74.5,65.8,68.8,64.0,58.8,87,71,53,30.09,29.96,8,4,0,0.23
2013-8-12,80.2,71.0,60.8,66.8,63.1,58.2,91,77,60,30.09,30.00,5,2,0,0.01
2013-8-13,76.3,68.7,61.3,64.6,61.7,57.0,89,79,59,30.20,30.08,8,4,16,0.37
2013-8-14,75.6,69.0,62.6,64.7,62.0,59.1,90,79,66,30.18,30.02,12,5,15,0.09
2013-8-15,81.0,69.8,62.1,67.3,61.5,53.8,90,76,50,30.10,29.99,8,4,13,0.07
2013-8-16,76.0,68.5,65.1,64.4,62.5,61.2,89,82,64,30.15,30.08,7,4,11,0.00
2013-8-17,74.5,69.1,63.5,66.0,63.1,60.2,90,81,73,30.15,30.05,8,5,14,0.00
2013-8-18,78.4,70.3,62.7,65.8,62.6,58.8,87,77,63,30.09,29.99,9,5,16,0.00
2013-8-19,89.3,76.6,64.5,71.1,65.5,60.3,87,70,48,30.03,29.87,7,4,13,0.00
2013-8-20,93.8,80.1,66.4,71.3,65.2,61.3,84,63,39,29.92,29.81,9,4,14,0.00
2013-8-21,93.3,81.5,69.5,70.4,65.5,62.3,79,60,44,29.91,29.78,10,5,15,0.00
2013-8-22,83.2,82.7,82.5,63.5,63.3,63.1,52,52,52,29.89,29.88,4,4,6,0.00
2013-8-23,85.7,79.7,76.6,69.7,68.8,67.7,76,70,58,29.88,29.85,8,5,16,0.00
2013-8-24,95.6,84.3,70.1,68.0,62.9,59.6,74,50,32,29.94,29.84,12,7,23,0.00
2013-8-25,96.2,84.7,73.0,67.0,63.4,60.2,72,51,32,29.98,29.89,12,7,20,0.00
2013-8-26,98.9,86.0,74.0,68.2,63.3,60.5,66,48,29,29.96,29.82,9,6,17,0.00
2013-8-27,98.5,85.0,71.8,67.5,61.9,58.1,66,48,29,29.90,29.80,8,4,16,0.00
2013-8-28,93.2,80.5,65.9,70.5,61.9,57.4,76,54,34,29.94,29.86,8,3,16,0.00
2013-8-29,99.1,80.0,64.7,71.9,65.9,60.8,88,65,29,29.95,29.85,9,3,0,0.00
2013-8-30,94.7,79.2,64.2,71.0,65.8,59.9,88,67,40,30.04,29.84,11,4,0,0.09
2013-8-31,92.1,77.4,62.5,72.2,65.5,58.6,88,69,45,30.00,29.77,6,2,12,0.03
2013-9-1,83.3,73.6,61.8,65.1,55.7,50.2,77,56,33,30.07,29.87,7,3,11,0.00
2013-9-2,86.1,70.1,53.0,63.5,56.7,48.6,88,65,39,30.14,29.99,9,3,14,0.00
2013-9-3,78.4,69.8,64.8,62.0,58.1,55.6,78,67,53,30.05,29.94,7,3,11,0.00
2013-9-4,94.8,78.6,66.9,65.1,60.0,55.9,72,54,34,30.09,29.94,12,6,17,0.00
2013-9-5,92.5,80.0,68.7,63.6,60.3,57.1,71,52,35,30.09,29.96,10,5,18,0.00
2013-9-6,101.8,83.6,65.4,62.1,58.3,51.8,77,46,23,30.01,29.80,8,4,12,0.00
2013-9-7,97.2,80.6,62.5,72.3,62.1,51.3,82,55,33,29.91,29.81,9,3,11,0.00
2013-9-8,94.5,79.1,67.0,71.1,65.7,55.3,92,67,38,29.89,29.70,10,3,15,0.02
2013-9-9,96.0,83.6,72.2,62.4,58.4,52.6,65,44,25,29.81,29.66,11,5,19,0.00
2013-9-10,85.3,73.5,67.0,64.0,61.0,57.9,77,66,48,29.97,29.79,8,4,12,0.00
2013-9-11,74.1,68.7,65.4,65.7,62.0,59.7,87,79,69,30.19,30.06,5,2,8,0.08
2013-9-12,79.5,69.9,63.6,62.9,59.6,55.3,90,72,47,30.27,30.17,10,4,17,0.00
2013-9-13,66.7,62.4,59.0,55.7,52.2,47.8,81,70,52,30.23,30.07,9,4,16,0.00
2013-9-14,76.5,66.4,60.1,63.3,55.6,50.7,74,68,62,30.08,29.85,10,6,20,0.00
2013-9-15,68.0,63.2,59.0,61.8,56.2,52.1,87,78,64,30.30,29.88,8,5,0,0.12
2013-9-16,58.5,56.9,55.3,52.1,51.7,50.9,89,83,77,30.34,30.20,4,3,0,0.00
2013-9-17,83.1,64.2,55.5,66.6,58.3,52.6,91,82,56,30.20,29.81,8,5,15,0.00
2013-9-18,92.4,81.5,66.1,67.5,64.1,55.7,84,57,39,29.74,29.59,9,4,19,0.03
2013-9-19,73.1,61.0,49.7,59.1,52.8,46.1,88,75,61,30.17,29.67,13,3,18,0.25
2013-9-20,75.0,57.7,41.3,54.5,45.6,38.0,88,67,39,30.25,30.05,4,2,9,0.01
2013-9-21,83.2,66.1,47.9,56.9,50.3,43.3,85,60,34,30.08,29.80,10,4,17,0.00
2013-9-22,83.2,70.5,58.5,57.7,52.1,45.5,63,53,38,29.80,29.61,17,9,26,0.00
2013-9-23,67.7,61.0,57.2,54.8,50.9,47.2,89,71,55,29.81,29.54,14,8,23,1.23
2013-9-24,58.7,54.5,49.6,53.0,49.8,45.9,88,84,77,30.07,29.81,8,4,14,0.00
2013-9-25,78.7,61.8,48.5,55.3,51.2,45.4,89,71,44,29.96,29.59,14,6,0,0.01
2013-9-26,86.6,71.9,59.0,59.1,55.0,51.1,75,57,35,29.66,29.56,12,5,0,0.00
2013-9-27,75.1,64.1,49.0,58.3,54.4,44.7,89,72,56,29.84,29.59,12,4,21,1.24
2013-9-28,67.6,54.4,45.1,47.7,41.7,37.6,86,65,35,30.15,29.82,10,3,18,0.00
2013-9-29,78.4,63.1,48.2,49.0,42.9,37.8,71,50,27,30.15,29.83,11,5,19,0.00
2013-9-30,84.1,67.4,51.9,52.9,48.7,44.6,77,54,28,29.85,29.69,9,3,15,0.00
2013-10-1,74.2,63.5,53.1,51.8,43.8,36.0,75,51,29,30.03,29.76,9,4,16,0.00
2013-10-2,78.3,64.3,51.1,63.2,53.2,44.1,86,69,47,29.97,29.81,10,2,16,0.00
2013-10-3,65.0,58.6,53.6,59.5,52.7,46.3,90,81,54,29.84,29.74,7,3,14,0.00
2013-10-4,62.0,52.3,39.2,59.4,46.5,29.1,92,81,64,30.06,29.66,13,7,23,0.00
2013-10-5,43.7,40.3,37.5,34.6,30.7,28.8,82,68,58,30.19,30.06,16,10,33,0.04
2013-10-6,65.0,50.2,38.6,36.9,33.2,29.9,77,54,31,30.24,30.14,14,8,29,0.00
2013-10-7,79.6,56.9,36.3,46.6,39.4,30.8,86,57,29,30.23,29.99,9,3,20,0.00
2013-10-8,80.5,64.5,50.3,45.5,42.9,40.4,69,48,26,29.99,29.75,13,8,24,0.00
2013-10-9,63.4,61.2,59.5,45.5,44.7,43.6,56,55,52,29.81,29.80,10,7,15,0.00
2013-10-10,79.6,64.3,47.5,56.6,49.8,43.2,86,62,40,29.90,29.56,19,8,0,0.37
2013-10-11,56.8,53.8,51.0,45.1,42.6,41.6,72,66,60,29.55,29.52,15,7,23,0.04
2013-10-12,62.2,49.8,37.7,42.5,36.0,31.2,83,62,33,30.35,30.06,4,1,0,0.00
2013-10-13,63.9,52.8,41.5,42.2,37.9,33.8,82,60,35,30.43,30.20,14,6,0,0.03
2013-10-14,66.2,54.7,45.0,58.2,47.9,35.8,90,78,60,30.19,29.66,14,8,0,0.59
2013-10-15,46.4,43.3,36.6,36.4,32.7,29.7,76,66,60,30.34,30.03,18,11,28,0.00
2013-10-16,53.0,40.1,29.7,35.4,30.8,25.6,86,71,43,30.33,30.10,7,2,23,0.00
2013-10-17,49.6,39.9,31.4,37.3,30.9,26.6,86,71,52,30.28,30.08,16,4,23,0.00
2013-10-18,50.7,39.1,31.9,34.6,29.4,25.9,84,69,46,30.31,30.19,13,2,22,0.00
2013-10-19,65.1,48.5,32.6,37.6,31.8,25.8,80,55,34,30.21,29.93,10,4,17,0.00
2013-10-20,58.1,44.3,38.0,40.8,34.5,30.1,76,69,49,29.97,29.88,10,2,15,0.00
2013-10-21,60.3,45.1,31.4,39.6,33.8,26.7,85,67,38,30.22,30.08,8,3,0,0.00
2013-10-22,60.2,50.0,41.3,41.5,37.5,32.7,82,64,43,30.21,30.09,14,4,23,0.00
2013-10-23,64.8,49.1,37.2,42.7,37.0,31.6,83,65,40,30.35,30.13,14,4,22,0.00
2013-10-24,46.0,41.7,39.3,37.4,33.8,31.2,77,73,70,30.51,30.34,5,3,8,0.00
2013-10-25,40.5,38.8,36.0,32.1,30.4,28.9,79,72,64,30.48,30.43,7,3,4,0.00
2013-10-26,60.8,46.7,36.4,38.5,32.5,28.9,84,61,31,30.42,30.21,6,3,0,0.00
2013-10-27,53.5,52.9,52.1,39.9,39.7,39.5,62,61,60,29.96,29.96,8,7,11,0.00
2013-10-28,51.6,43.2,36.5,39.4,33.9,29.7,86,70,57,30.24,29.97,13,9,16,0.00
2013-10-29,38.9,37.8,35.2,35.6,34.7,32.3,89,89,86,30.22,30.17,7,4,11,0.03
2013-10-30,48.8,38.8,32.1,39.3,34.6,28.9,91,85,69,30.19,29.93,6,2,0,0.05
2013-10-31,59.6,42.5,27.9,37.1,30.8,25.1,89,68,34,29.92,29.75,14,5,0,0.01
2013-11-1,56.8,45.3,33.9,37.6,31.5,24.2,80,61,34,30.27,29.86,14,6,27,0.00
2013-11-2,59.0,51.6,33.4,32.1,29.3,24.1,77,43,31,30.39,30.03,9,6,27,0.00
2013-11-3,65.1,48.0,38.0,39.2,33.4,29.8,74,58,36,30.02,29.62,12,5,27,0.00
2013-11-4,50.5,43.9,34.0,35.9,31.7,26.5,78,63,45,30.24,29.76,11,5,15,0.00
2013-11-5,35.8,33.8,30.3,32.3,29.4,26.0,88,84,74,30.34,30.12,8,4,15,0.58
2013-11-6,44.6,33.8,26.1,32.1,26.9,22.2,86,76,56,30.51,30.33,7,3,15,0.03
2013-11-7,52.9,39.3,26.8,34.6,29.7,22.6,86,70,45,30.64,30.27,9,2,15,0.01
2013-11-8,69.2,47.9,35.1,40.4,34.3,29.4,83,62,30,30.27,29.82,11,3,16,0.00
2013-11-9,55.2,39.1,33.2,36.2,30.9,27.1,80,73,43,30.32,30.10,3,2,15,0.00
2013-11-10,55.3,40.5,29.2,43.9,33.9,25.0,88,78,63,30.49,30.27,10,2,16,0.00
2013-11-11,42.6,30.6,23.2,36.9,23.4,11.0,90,75,56,30.98,30.25,11,5,15,0.00
2013-11-12,41.8,29.0,14.8,28.2,19.5,8.9,80,68,55,31.04,30.65,8,4,13,0.00
2013-11-13,65.5,44.4,27.5,38.1,31.7,22.2,83,63,35,30.65,30.04,9,3,13,0.00
2013-11-14,47.9,44.3,39.6,39.4,36.8,32.1,78,75,72,30.12,30.03,8,4,13,0.00
2013-11-15,57.8,45.6,34.9,38.5,34.8,29.7,82,67,47,30.00,29.55,11,5,0,0.00
2013-11-16,60.2,46.2,33.0,36.7,31.2,28.4,87,60,30,29.55,29.42,10,3,0,0.00
2013-11-17,51.1,43.5,27.8,37.5,26.2,18.5,73,52,32,30.23,29.53,20,8,0,0.02
2013-11-18,59.6,40.2,23.1,25.4,20.8,14.9,74,50,26,30.38,30.22,11,3,0,0.00
2013-11-19,57.3,45.5,32.6,35.4,28.0,20.3,67,51,40,30.21,29.83,12,6,14,0.00
2013-11-20,57.4,44.1,33.5,35.8,32.4,24.8,76,64,38,30.16,29.81,11,3,14,0.00
2013-11-21,33.1,19.7,14.1,24.4,12.4,6.7,81,73,66,30.91,30.17,13,8,19,0.00
2013-11-22,33.3,20.1,10.0,17.4,10.6,3.5,77,67,47,31.00,30.86,5,3,12,0.00
2013-11-23,26.6,20.1,15.0,14.9,11.8,9.4,78,70,59,31.07,30.85,3,2,0,0.00
2013-11-24,17.7,17.5,17.4,12.7,12.5,12.3,81,80,80,30.74,30.72,2,1,12,0.00
2013-11-25,45.0,32.0,20.4,28.8,21.4,17.1,87,67,40,30.48,30.27,9,3,12,0.00
2013-11-26,34.0,24.7,13.7,20.8,15.4,7.0,79,68,45,30.65,30.47,11,3,14,0.00
2013-11-27,56.4,31.4,12.0,31.0,19.5,6.0,82,63,36,30.65,30.18,9,2,12,0.00
2013-11-28,36.5,26.2,20.2,25.0,20.0,15.7,84,77,64,30.60,30.32,6,2,8,0.00
2013-11-29,44.6,29.2,20.7,30.8,22.0,16.1,85,75,58,30.60,30.31,7,3,10,0.00
2013-11-30,59.8,36.9,22.3,34.9,25.9,18.2,85,68,33,30.33,30.23,7,2,9,0.00
2013-12-1,54.1,35.8,20.9,33.1,25.8,16.7,84,69,44,30.31,29.94,5,1,7,0.00
2013-12-2,62.6,46.0,32.5,36.4,30.3,24.0,74,56,36,29.94,29.61,9,2,11,0.00
2013-12-3,35.2,31.9,27.0,30.0,26.5,20.3,88,81,72,29.85,29.61,11,4,17,0.00
2013-12-4,16.8,13.2,8.2,5.3,1.6,-3.7,67,59,55,30.47,30.05,16,12,24,0.00
2013-12-5,14.5,6.6,0.6,-2.8,-5.3,-7.2,69,58,42,30.65,30.45,9,5,15,0.00
2013-12-6,12.6,4.7,-3.3,-4.9,-8.1,-11.5,67,56,41,30.96,30.73,6,3,9,0.00
2013-12-7,9.9,3.6,-3.4,3.6,-5.5,-11.3,78,65,54,30.95,30.53,9,5,15,0.00
2013-12-8,13.8,9.2,-1.5,7.6,2.9,-8.6,80,75,62,30.53,30.24,9,4,13,0.00
2013-12-9,23.5,7.8,-5.4,9.1,-1.7,-12.0,74,65,53,30.58,30.39,11,5,15,0.00
2013-12-10,38.3,28.4,18.1,20.8,13.4,6.9,75,54,33,30.54,30.25,12,6,15,0.00
2013-12-11,25.6,18.9,7.4,16.3,11.0,1.0,78,71,63,30.81,30.54,11,4,14,0.00
2013-12-12,22.2,17.5,13.2,13.9,11.3,7.9,80,76,70,30.62,30.60,2,0,2,0.00
2013-12-13,33.3,24.1,20.8,20.9,17.2,15.0,80,75,60,30.36,30.16,10,6,14,0.00
2013-12-14,46.8,25.0,15.2,27.4,16.5,10.4,83,72,43,30.43,30.33,13,4,20,0.00
2013-12-15,55.7,42.6,30.2,29.0,25.0,20.0,70,51,35,30.33,30.10,12,5,17,0.00
2013-12-16,57.6,37.5,23.3,29.2,23.4,17.3,80,59,32,30.38,30.13,7,2,9,0.00
2013-12-17,41.5,26.9,20.8,26.5,20.0,15.1,82,75,51,30.52,30.36,6,2,9,0.00
2013-12-18,68.3,44.2,25.8,30.8,23.3,17.2,70,48,22,30.03,29.82,8,2,11,0.00
2013-12-19,37.5,25.6,10.8,26.3,18.4,4.7,82,74,63,30.19,29.83,12,6,18,0.00
2013-12-20,22.0,14.8,10.3,10.2,6.4,2.9,77,69,59,30.24,30.07,12,4,14,0.00
2013-12-21,33.8,19.2,7.8,17.1,10.3,2.1,79,69,49,30.18,29.95,9,3,13,0.00
2013-12-22,31.6,19.6,6.3,15.6,11.1,1.2,82,70,49,30.63,30.18,10,4,15,0.00
2013-12-23,16.2,11.9,7.9,9.2,5.0,1.6,80,73,64,30.79,30.57,8,4,10,0.00
2013-12-24,40.9,25.6,11.6,33.6,19.9,6.4,85,79,66,30.57,30.27,12,5,15,0.01
2013-12-25,42.3,29.4,19.7,25.8,20.3,15.6,86,70,44,30.59,30.43,9,3,13,0.00
2013-12-26,54.0,34.2,18.2,26.5,19.9,11.6,77,58,34,30.44,30.32,11,4,16,0.00
2013-12-27,60.1,35.4,19.7,29.9,21.6,14.1,82,62,31,30.44,30.29,7,2,9,0.00
2013-12-28,58.0,31.3,13.5,29.8,19.5,3.2,81,64,33,30.45,29.93,14,5,0,0.00
2013-12-29,22.8,13.7,4.7,5.3,1.7,-2.6,73,59,45,30.63,30.37,10,5,0,0.00
2013-12-30,47.8,27.1,16.0,27.4,15.1,5.8,81,61,43,30.41,30.27,16,4,0,0.00
2013-12-31,55.0,31.8,18.5,28.9,20.0,13.9,83,64,36,30.40,30.10,9,4,13,0.00
2014-1-1,25.3,18.9,14.1,18.6,12.6,8.4,82,76,71,30.62,30.18,8,5,13,0.00
2014-1-2,36.2,24.1,14.0,25.1,17.8,9.4,85,77,62,30.60,30.41,8,4,10,0.02